sensor_id;sensor_type;location;lat;lon;timestamp;P1;durP1;ratioP1;P2;durP2;ratioP2
63046;SDS011;62025;39.238;9.126;2022-08-19T00:01:13;8.15;;;2.85;;
63046;SDS011;62025;39.238;9.126;2022-08-19T00:03:40;5.65;;;2.63;;
63046;SDS011;62025;39.238;9.126;2022-08-19T00:06:06;8.43;;;2.47;;
63046;SDS011;62025;39.238;9.126;2022-08-19T00:08:32;7.82;;;2.60;;
63046;SDS011;62025;39.238;9.126;2022-08-19T00:10:58;4.63;;;2.38;;
63046;SDS011;62025;39.238;9.126;2022-08-19T00:13:24;4.85;;;2.38;;
63046;SDS011;62025;39.238;9.126;2022-08-19T00:15:50;4.03;;;2.30;;
63046;SDS011;62025;39.238;9.126;2022-08-19T00:18:16;5.65;;;2.35;;
63046;SDS011;62025;39.238;9.126;2022-08-19T00:20:42;4.32;;;2.00;;
63046;SDS011;62025;39.238;9.126;2022-08-19T00:23:09;5.00;;;2.45;;
63046;SDS011;62025;39.238;9.126;2022-08-19T00:25:35;5.38;;;2.33;;
63046;SDS011;62025;39.238;9.126;2022-08-19T00:28:02;6.38;;;2.30;;
63046;SDS011;62025;39.238;9.126;2022-08-19T00:30:29;5.68;;;2.58;;
63046;SDS011;62025;39.238;9.126;2022-08-19T00:32:56;6.90;;;2.80;;
63046;SDS011;62025;39.238;9.126;2022-08-19T00:35:22;8.13;;;2.50;;
63046;SDS011;62025;39.238;9.126;2022-08-19T00:37:49;6.47;;;2.65;;
63046;SDS011;62025;39.238;9.126;2022-08-19T00:40:16;7.38;;;2.17;;
63046;SDS011;62025;39.238;9.126;2022-08-19T00:42:44;6.90;;;2.40;;
63046;SDS011;62025;39.238;9.126;2022-08-19T00:45:12;7.28;;;2.58;;
63046;SDS011;62025;39.238;9.126;2022-08-19T00:47:43;7.25;;;2.65;;
63046;SDS011;62025;39.238;9.126;2022-08-19T00:50:11;5.10;;;2.40;;
63046;SDS011;62025;39.238;9.126;2022-08-19T00:52:42;7.63;;;2.40;;
63046;SDS011;62025;39.238;9.126;2022-08-19T00:55:22;7.55;;;2.65;;
63046;SDS011;62025;39.238;9.126;2022-08-19T00:58:13;6.78;;;2.25;;
63046;SDS011;62025;39.238;9.126;2022-08-19T01:00:43;5.63;;;2.20;;
63046;SDS011;62025;39.238;9.126;2022-08-19T01:03:12;5.40;;;2.25;;
63046;SDS011;62025;39.238;9.126;2022-08-19T01:05:43;5.82;;;2.40;;
63046;SDS011;62025;39.238;9.126;2022-08-19T01:08:11;6.93;;;2.42;;
63046;SDS011;62025;39.238;9.126;2022-08-19T01:10:41;5.63;;;2.33;;
63046;SDS011;62025;39.238;9.126;2022-08-19T01:13:19;8.20;;;2.40;;
63046;SDS011;62025;39.238;9.126;2022-08-19T01:15:51;4.70;;;2.80;;
63046;SDS011;62025;39.238;9.126;2022-08-19T01:18:22;7.05;;;2.72;;
63046;SDS011;62025;39.238;9.126;2022-08-19T01:20:50;4.60;;;2.80;;
63046;SDS011;62025;39.238;9.126;2022-08-19T01:23:20;6.05;;;2.65;;
63046;SDS011;62025;39.238;9.126;2022-08-19T01:25:47;6.20;;;2.80;;
63046;SDS011;62025;39.238;9.126;2022-08-19T01:28:18;7.57;;;2.38;;
63046;SDS011;62025;39.238;9.126;2022-08-19T01:30:51;6.35;;;2.60;;
63046;SDS011;62025;39.238;9.126;2022-08-19T01:33:19;7.43;;;2.92;;
63046;SDS011;62025;39.238;9.126;2022-08-19T01:35:45;4.90;;;2.58;;
63046;SDS011;62025;39.238;9.126;2022-08-19T01:38:22;4.68;;;2.53;;
63046;SDS011;62025;39.238;9.126;2022-08-19T01:40:51;6.47;;;2.60;;
63046;SDS011;62025;39.238;9.126;2022-08-19T01:43:18;4.93;;;2.35;;
63046;SDS011;62025;39.238;9.126;2022-08-19T01:45:46;7.95;;;2.58;;
63046;SDS011;62025;39.238;9.126;2022-08-19T01:48:12;5.03;;;2.45;;
63046;SDS011;62025;39.238;9.126;2022-08-19T01:53:08;8.18;;;2.53;;
63046;SDS011;62025;39.238;9.126;2022-08-19T01:55:38;4.82;;;2.83;;
63046;SDS011;62025;39.238;9.126;2022-08-19T01:58:09;5.13;;;2.33;;
63046;SDS011;62025;39.238;9.126;2022-08-19T02:00:41;6.40;;;2.70;;
63046;SDS011;62025;39.238;9.126;2022-08-19T02:03:08;10.70;;;2.83;;
63046;SDS011;62025;39.238;9.126;2022-08-19T02:05:36;9.77;;;2.70;;
63046;SDS011;62025;39.238;9.126;2022-08-19T02:08:03;8.60;;;2.63;;
63046;SDS011;62025;39.238;9.126;2022-08-19T02:10:30;5.68;;;2.50;;
63046;SDS011;62025;39.238;9.126;2022-08-19T02:12:57;7.15;;;2.53;;
63046;SDS011;62025;39.238;9.126;2022-08-19T02:15:23;10.80;;;2.33;;
63046;SDS011;62025;39.238;9.126;2022-08-19T02:17:51;5.43;;;2.33;;
63046;SDS011;62025;39.238;9.126;2022-08-19T02:20:17;7.53;;;2.65;;
63046;SDS011;62025;39.238;9.126;2022-08-19T02:22:43;4.68;;;2.33;;
63046;SDS011;62025;39.238;9.126;2022-08-19T02:25:10;8.40;;;2.38;;
63046;SDS011;62025;39.238;9.126;2022-08-19T02:27:39;5.47;;;2.28;;
63046;SDS011;62025;39.238;9.126;2022-08-19T02:30:07;5.88;;;2.25;;
63046;SDS011;62025;39.238;9.126;2022-08-19T02:32:38;5.10;;;2.22;;
63046;SDS011;62025;39.238;9.126;2022-08-19T02:35:04;6.15;;;2.10;;
63046;SDS011;62025;39.238;9.126;2022-08-19T02:37:31;4.57;;;2.08;;
63046;SDS011;62025;39.238;9.126;2022-08-19T02:40:16;6.93;;;2.00;;
63046;SDS011;62025;39.238;9.126;2022-08-19T02:42:43;5.38;;;2.15;;
63046;SDS011;62025;39.238;9.126;2022-08-19T02:45:11;5.40;;;2.45;;
63046;SDS011;62025;39.238;9.126;2022-08-19T02:47:39;6.63;;;2.72;;
63046;SDS011;62025;39.238;9.126;2022-08-19T02:50:05;3.17;;;1.90;;
63046;SDS011;62025;39.238;9.126;2022-08-19T02:52:32;4.20;;;2.40;;
63046;SDS011;62025;39.238;9.126;2022-08-19T02:55:00;4.55;;;2.17;;
63046;SDS011;62025;39.238;9.126;2022-08-19T02:57:26;4.55;;;2.13;;
63046;SDS011;62025;39.238;9.126;2022-08-19T02:59:53;5.70;;;2.20;;
63046;SDS011;62025;39.238;9.126;2022-08-19T03:02:19;7.18;;;2.45;;
63046;SDS011;62025;39.238;9.126;2022-08-19T03:04:45;5.32;;;2.08;;
63046;SDS011;62025;39.238;9.126;2022-08-19T03:07:13;4.65;;;2.58;;
63046;SDS011;62025;39.238;9.126;2022-08-19T03:09:40;5.18;;;2.50;;
63046;SDS011;62025;39.238;9.126;2022-08-19T03:12:07;5.13;;;2.40;;
63046;SDS011;62025;39.238;9.126;2022-08-19T03:14:34;9.63;;;2.47;;
63046;SDS011;62025;39.238;9.126;2022-08-19T03:17:02;5.13;;;2.33;;
63046;SDS011;62025;39.238;9.126;2022-08-19T03:19:29;7.17;;;2.53;;
63046;SDS011;62025;39.238;9.126;2022-08-19T03:21:56;5.70;;;2.05;;
63046;SDS011;62025;39.238;9.126;2022-08-19T03:24:23;10.20;;;2.42;;
63046;SDS011;62025;39.238;9.126;2022-08-19T03:26:51;4.63;;;2.38;;
63046;SDS011;62025;39.238;9.126;2022-08-19T03:29:22;5.57;;;2.00;;
63046;SDS011;62025;39.238;9.126;2022-08-19T03:31:50;6.00;;;2.40;;
63046;SDS011;62025;39.238;9.126;2022-08-19T03:34:24;5.25;;;1.85;;
63046;SDS011;62025;39.238;9.126;2022-08-19T03:36:57;5.65;;;2.22;;
63046;SDS011;62025;39.238;9.126;2022-08-19T03:39:29;8.88;;;2.35;;
63046;SDS011;62025;39.238;9.126;2022-08-19T03:41:55;6.43;;;2.25;;
63046;SDS011;62025;39.238;9.126;2022-08-19T03:44:23;5.03;;;2.10;;
63046;SDS011;62025;39.238;9.126;2022-08-19T03:46:53;4.18;;;1.90;;
63046;SDS011;62025;39.238;9.126;2022-08-19T03:49:23;4.70;;;2.00;;
63046;SDS011;62025;39.238;9.126;2022-08-19T03:51:52;6.47;;;2.10;;
63046;SDS011;62025;39.238;9.126;2022-08-19T03:54:20;5.18;;;1.85;;
63046;SDS011;62025;39.238;9.126;2022-08-19T03:59:20;7.65;;;1.90;;
63046;SDS011;62025;39.238;9.126;2022-08-19T04:01:56;7.43;;;1.80;;
63046;SDS011;62025;39.238;9.126;2022-08-19T04:04:25;7.32;;;2.20;;
63046;SDS011;62025;39.238;9.126;2022-08-19T04:06:52;3.28;;;1.88;;
63046;SDS011;62025;39.238;9.126;2022-08-19T04:09:18;5.22;;;2.00;;
63046;SDS011;62025;39.238;9.126;2022-08-19T04:11:47;8.25;;;2.38;;
63046;SDS011;62025;39.238;9.126;2022-08-19T04:14:20;7.63;;;2.15;;
63046;SDS011;62025;39.238;9.126;2022-08-19T04:16:50;4.30;;;1.90;;
63046;SDS011;62025;39.238;9.126;2022-08-19T04:19:17;5.32;;;2.00;;
63046;SDS011;62025;39.238;9.126;2022-08-19T04:21:45;5.10;;;1.90;;
63046;SDS011;62025;39.238;9.126;2022-08-19T04:24:13;4.80;;;1.80;;
63046;SDS011;62025;39.238;9.126;2022-08-19T04:26:40;5.15;;;2.00;;
63046;SDS011;62025;39.238;9.126;2022-08-19T04:29:08;8.23;;;2.22;;
63046;SDS011;62025;39.238;9.126;2022-08-19T04:31:38;2.78;;;1.90;;
63046;SDS011;62025;39.238;9.126;2022-08-19T04:34:07;5.30;;;1.90;;
63046;SDS011;62025;39.238;9.126;2022-08-19T04:36:36;4.70;;;1.98;;
63046;SDS011;62025;39.238;9.126;2022-08-19T04:39:10;4.28;;;1.83;;
63046;SDS011;62025;39.238;9.126;2022-08-19T04:41:41;7.05;;;1.90;;
63046;SDS011;62025;39.238;9.126;2022-08-19T04:44:27;3.33;;;1.95;;
63046;SDS011;62025;39.238;9.126;2022-08-19T04:46:55;3.47;;;1.63;;
63046;SDS011;62025;39.238;9.126;2022-08-19T04:49:22;5.47;;;1.98;;
63046;SDS011;62025;39.238;9.126;2022-08-19T04:51:49;5.53;;;2.38;;
63046;SDS011;62025;39.238;9.126;2022-08-19T04:54:19;4.75;;;2.40;;
63046;SDS011;62025;39.238;9.126;2022-08-19T04:56:49;8.15;;;2.50;;
63046;SDS011;62025;39.238;9.126;2022-08-19T04:59:16;4.53;;;2.20;;
63046;SDS011;62025;39.238;9.126;2022-08-19T05:01:44;4.20;;;2.30;;
63046;SDS011;62025;39.238;9.126;2022-08-19T05:04:15;6.18;;;2.63;;
63046;SDS011;62025;39.238;9.126;2022-08-19T05:06:44;5.30;;;2.35;;
63046;SDS011;62025;39.238;9.126;2022-08-19T05:09:13;4.53;;;2.15;;
63046;SDS011;62025;39.238;9.126;2022-08-19T05:11:41;9.25;;;2.47;;
63046;SDS011;62025;39.238;9.126;2022-08-19T05:14:07;8.13;;;3.03;;
63046;SDS011;62025;39.238;9.126;2022-08-19T05:16:36;4.32;;;2.30;;
63046;SDS011;62025;39.238;9.126;2022-08-19T05:19:02;10.88;;;2.50;;
63046;SDS011;62025;39.238;9.126;2022-08-19T05:21:47;8.02;;;2.33;;
63046;SDS011;62025;39.238;9.126;2022-08-19T05:24:31;8.00;;;2.30;;
63046;SDS011;62025;39.238;9.126;2022-08-19T05:27:00;4.00;;;2.30;;
63046;SDS011;62025;39.238;9.126;2022-08-19T05:29:29;5.13;;;2.30;;
63046;SDS011;62025;39.238;9.126;2022-08-19T05:31:56;5.35;;;2.22;;
63046;SDS011;62025;39.238;9.126;2022-08-19T05:34:24;7.07;;;2.50;;
63046;SDS011;62025;39.238;9.126;2022-08-19T05:36:52;5.47;;;2.30;;
63046;SDS011;62025;39.238;9.126;2022-08-19T05:39:23;7.75;;;2.30;;
63046;SDS011;62025;39.238;9.126;2022-08-19T05:41:56;7.63;;;2.50;;
63046;SDS011;62025;39.238;9.126;2022-08-19T05:44:25;4.95;;;2.42;;
63046;SDS011;62025;39.238;9.126;2022-08-19T05:46:59;3.40;;;2.33;;
63046;SDS011;62025;39.238;9.126;2022-08-19T05:49:29;5.25;;;2.55;;
63046;SDS011;62025;39.238;9.126;2022-08-19T05:51:58;7.00;;;2.53;;
63046;SDS011;62025;39.238;9.126;2022-08-19T05:54:29;7.78;;;2.67;;
63046;SDS011;62025;39.238;9.126;2022-08-19T05:56:56;5.90;;;2.42;;
63046;SDS011;62025;39.238;9.126;2022-08-19T05:59:22;11.35;;;2.58;;
63046;SDS011;62025;39.238;9.126;2022-08-19T06:01:49;6.85;;;2.33;;
63046;SDS011;62025;39.238;9.126;2022-08-19T06:04:18;6.18;;;2.17;;
63046;SDS011;62025;39.238;9.126;2022-08-19T06:09:12;5.18;;;2.35;;
63046;SDS011;62025;39.238;9.126;2022-08-19T06:14:19;5.85;;;2.15;;
63046;SDS011;62025;39.238;9.126;2022-08-19T06:16:49;6.50;;;2.05;;
63046;SDS011;62025;39.238;9.126;2022-08-19T06:19:19;6.97;;;2.47;;
63046;SDS011;62025;39.238;9.126;2022-08-19T06:21:48;4.60;;;2.10;;
63046;SDS011;62025;39.238;9.126;2022-08-19T06:24:17;5.45;;;2.10;;
63046;SDS011;62025;39.238;9.126;2022-08-19T06:26:49;5.05;;;1.60;;
63046;SDS011;62025;39.238;9.126;2022-08-19T06:29:18;10.95;;;2.10;;
63046;SDS011;62025;39.238;9.126;2022-08-19T06:31:47;6.60;;;2.03;;
63046;SDS011;62025;39.238;9.126;2022-08-19T06:34:17;7.07;;;2.28;;
63046;SDS011;62025;39.238;9.126;2022-08-19T06:36:45;7.78;;;1.90;;
63046;SDS011;62025;39.238;9.126;2022-08-19T06:39:18;8.65;;;2.10;;
63046;SDS011;62025;39.238;9.126;2022-08-19T06:41:58;6.63;;;1.77;;
63046;SDS011;62025;39.238;9.126;2022-08-19T06:44:29;4.22;;;1.80;;
63046;SDS011;62025;39.238;9.126;2022-08-19T06:47:00;6.93;;;1.77;;
63046;SDS011;62025;39.238;9.126;2022-08-19T06:49:32;6.28;;;1.60;;
63046;SDS011;62025;39.238;9.126;2022-08-19T06:51:59;5.57;;;1.60;;
63046;SDS011;62025;39.238;9.126;2022-08-19T06:54:27;5.80;;;2.00;;
63046;SDS011;62025;39.238;9.126;2022-08-19T06:57:00;4.22;;;1.70;;
63046;SDS011;62025;39.238;9.126;2022-08-19T06:59:27;4.40;;;2.03;;
63046;SDS011;62025;39.238;9.126;2022-08-19T07:01:58;5.22;;;1.70;;
63046;SDS011;62025;39.238;9.126;2022-08-19T07:04:30;5.20;;;1.70;;
63046;SDS011;62025;39.238;9.126;2022-08-19T07:07:03;4.43;;;2.03;;
63046;SDS011;62025;39.238;9.126;2022-08-19T07:09:37;4.65;;;1.80;;
63046;SDS011;62025;39.238;9.126;2022-08-19T07:12:07;5.50;;;1.90;;
63046;SDS011;62025;39.238;9.126;2022-08-19T07:14:35;4.00;;;1.73;;
63046;SDS011;62025;39.238;9.126;2022-08-19T07:17:04;8.13;;;2.38;;
63046;SDS011;62025;39.238;9.126;2022-08-19T07:19:33;5.32;;;1.98;;
63046;SDS011;62025;39.238;9.126;2022-08-19T07:22:01;3.65;;;1.65;;
63046;SDS011;62025;39.238;9.126;2022-08-19T07:24:30;4.78;;;1.90;;
63046;SDS011;62025;39.238;9.126;2022-08-19T07:27:02;4.03;;;1.85;;
63046;SDS011;62025;39.238;9.126;2022-08-19T07:29:31;3.90;;;1.80;;
63046;SDS011;62025;39.238;9.126;2022-08-19T07:32:00;5.28;;;1.95;;
63046;SDS011;62025;39.238;9.126;2022-08-19T07:34:28;5.47;;;2.15;;
63046;SDS011;62025;39.238;9.126;2022-08-19T07:39:24;6.97;;;2.28;;
63046;SDS011;62025;39.238;9.126;2022-08-19T07:41:54;4.82;;;1.90;;
63046;SDS011;62025;39.238;9.126;2022-08-19T07:44:22;6.88;;;2.33;;
63046;SDS011;62025;39.238;9.126;2022-08-19T07:46:50;7.95;;;2.13;;
63046;SDS011;62025;39.238;9.126;2022-08-19T07:49:20;4.38;;;2.10;;
63046;SDS011;62025;39.238;9.126;2022-08-19T07:51:59;7.37;;;2.93;;
63046;SDS011;62025;39.238;9.126;2022-08-19T07:54:30;9.20;;;2.85;;
63046;SDS011;62025;39.238;9.126;2022-08-19T07:56:59;6.50;;;2.40;;
63046;SDS011;62025;39.238;9.126;2022-08-19T07:59:26;6.15;;;2.50;;
63046;SDS011;62025;39.238;9.126;2022-08-19T08:01:54;13.65;;;3.72;;
63046;SDS011;62025;39.238;9.126;2022-08-19T08:04:21;9.68;;;2.53;;
63046;SDS011;62025;39.238;9.126;2022-08-19T08:07:06;5.65;;;2.15;;
63046;SDS011;62025;39.238;9.126;2022-08-19T08:09:52;5.55;;;2.13;;
63046;SDS011;62025;39.238;9.126;2022-08-19T08:12:20;6.55;;;2.20;;
63046;SDS011;62025;39.238;9.126;2022-08-19T08:14:55;7.38;;;2.78;;
63046;SDS011;62025;39.238;9.126;2022-08-19T08:17:27;4.47;;;2.45;;
63046;SDS011;62025;39.238;9.126;2022-08-19T08:19:55;8.68;;;2.30;;
63046;SDS011;62025;39.238;9.126;2022-08-19T08:22:22;12.50;;;2.60;;
63046;SDS011;62025;39.238;9.126;2022-08-19T08:25:09;7.03;;;2.80;;
63046;SDS011;62025;39.238;9.126;2022-08-19T08:27:44;7.90;;;2.53;;
63046;SDS011;62025;39.238;9.126;2022-08-19T08:30:14;6.18;;;2.30;;
63046;SDS011;62025;39.238;9.126;2022-08-19T08:32:43;5.85;;;2.50;;
63046;SDS011;62025;39.238;9.126;2022-08-19T08:35:11;7.57;;;2.58;;
63046;SDS011;62025;39.238;9.126;2022-08-19T08:37:42;4.97;;;2.78;;
63046;SDS011;62025;39.238;9.126;2022-08-19T08:42:50;6.63;;;2.45;;
63046;SDS011;62025;39.238;9.126;2022-08-19T08:45:27;5.45;;;2.50;;
63046;SDS011;62025;39.238;9.126;2022-08-19T08:47:55;7.68;;;2.67;;
63046;SDS011;62025;39.238;9.126;2022-08-19T08:50:29;5.80;;;2.80;;
63046;SDS011;62025;39.238;9.126;2022-08-19T08:53:01;5.70;;;2.58;;
63046;SDS011;62025;39.238;9.126;2022-08-19T08:55:31;8.20;;;2.72;;
63046;SDS011;62025;39.238;9.126;2022-08-19T09:00:34;7.07;;;2.28;;
63046;SDS011;62025;39.238;9.126;2022-08-19T09:03:09;9.57;;;2.63;;
63046;SDS011;62025;39.238;9.126;2022-08-19T09:08:45;10.05;;;2.70;;
63046;SDS011;62025;39.238;9.126;2022-08-19T09:14:45;8.05;;;2.65;;
63046;SDS011;62025;39.238;9.126;2022-08-19T09:17:28;7.05;;;2.70;;
63046;SDS011;62025;39.238;9.126;2022-08-19T09:20:00;5.50;;;2.20;;
63046;SDS011;62025;39.238;9.126;2022-08-19T09:22:34;7.85;;;2.55;;
63046;SDS011;62025;39.238;9.126;2022-08-19T09:25:02;6.78;;;2.70;;
63046;SDS011;62025;39.238;9.126;2022-08-19T09:27:30;6.82;;;2.60;;
63046;SDS011;62025;39.238;9.126;2022-08-19T09:29:57;8.30;;;2.25;;
63046;SDS011;62025;39.238;9.126;2022-08-19T09:32:23;6.22;;;2.40;;
63046;SDS011;62025;39.238;9.126;2022-08-19T09:37:20;8.10;;;2.20;;
63046;SDS011;62025;39.238;9.126;2022-08-19T09:39:47;7.53;;;2.08;;
63046;SDS011;62025;39.238;9.126;2022-08-19T09:42:13;12.57;;;2.53;;
63046;SDS011;62025;39.238;9.126;2022-08-19T09:44:42;7.35;;;2.20;;
63046;SDS011;62025;39.238;9.126;2022-08-19T09:47:10;5.65;;;2.28;;
63046;SDS011;62025;39.238;9.126;2022-08-19T09:49:38;8.63;;;2.15;;
63046;SDS011;62025;39.238;9.126;2022-08-19T09:52:08;3.90;;;1.85;;
63046;SDS011;62025;39.238;9.126;2022-08-19T09:54:36;5.25;;;1.92;;
63046;SDS011;62025;39.238;9.126;2022-08-19T09:59:30;5.88;;;1.70;;
63046;SDS011;62025;39.238;9.126;2022-08-19T10:01:56;6.53;;;2.08;;
63046;SDS011;62025;39.238;9.126;2022-08-19T10:04:22;5.95;;;1.80;;
63046;SDS011;62025;39.238;9.126;2022-08-19T10:07:09;4.70;;;1.80;;
63046;SDS011;62025;39.238;9.126;2022-08-19T10:09:35;6.55;;;2.03;;
63046;SDS011;62025;39.238;9.126;2022-08-19T10:12:02;6.40;;;2.00;;
63046;SDS011;62025;39.238;9.126;2022-08-19T10:14:30;6.60;;;2.17;;
63046;SDS011;62025;39.238;9.126;2022-08-19T10:16:56;4.57;;;2.20;;
63046;SDS011;62025;39.238;9.126;2022-08-19T10:19:24;6.63;;;2.15;;
63046;SDS011;62025;39.238;9.126;2022-08-19T10:21:53;8.57;;;2.53;;
63046;SDS011;62025;39.238;9.126;2022-08-19T10:24:19;7.00;;;2.00;;
63046;SDS011;62025;39.238;9.126;2022-08-19T10:26:49;8.35;;;2.13;;
63046;SDS011;62025;39.238;9.126;2022-08-19T10:29:15;8.80;;;1.75;;
63046;SDS011;62025;39.238;9.126;2022-08-19T10:31:41;4.75;;;1.80;;
63046;SDS011;62025;39.238;9.126;2022-08-19T10:34:07;6.13;;;2.03;;
63046;SDS011;62025;39.238;9.126;2022-08-19T10:36:35;5.60;;;2.25;;
63046;SDS011;62025;39.238;9.126;2022-08-19T10:39:04;4.25;;;1.90;;
63046;SDS011;62025;39.238;9.126;2022-08-19T10:41:35;7.43;;;1.80;;
63046;SDS011;62025;39.238;9.126;2022-08-19T10:44:05;6.30;;;1.70;;
63046;SDS011;62025;39.238;9.126;2022-08-19T10:46:38;5.20;;;2.00;;
63046;SDS011;62025;39.238;9.126;2022-08-19T10:49:08;7.38;;;2.03;;
63046;SDS011;62025;39.238;9.126;2022-08-19T10:51:37;4.82;;;1.60;;
63046;SDS011;62025;39.238;9.126;2022-08-19T10:54:23;5.40;;;1.67;;
63046;SDS011;62025;39.238;9.126;2022-08-19T10:57:09;4.03;;;1.80;;
63046;SDS011;62025;39.238;9.126;2022-08-19T10:59:35;5.85;;;2.10;;
63046;SDS011;62025;39.238;9.126;2022-08-19T11:02:06;6.27;;;1.97;;
63046;SDS011;62025;39.238;9.126;2022-08-19T11:04:35;7.97;;;1.60;;
63046;SDS011;62025;39.238;9.126;2022-08-19T11:07:03;6.75;;;1.65;;
63046;SDS011;62025;39.238;9.126;2022-08-19T11:09:31;4.30;;;2.20;;
63046;SDS011;62025;39.238;9.126;2022-08-19T11:12:04;6.35;;;2.60;;
63046;SDS011;62025;39.238;9.126;2022-08-19T11:14:31;5.53;;;2.00;;
63046;SDS011;62025;39.238;9.126;2022-08-19T11:16:58;7.88;;;1.80;;
63046;SDS011;62025;39.238;9.126;2022-08-19T11:19:24;4.72;;;1.75;;
63046;SDS011;62025;39.238;9.126;2022-08-19T11:21:51;4.15;;;1.60;;
63046;SDS011;62025;39.238;9.126;2022-08-19T11:26:47;9.18;;;1.80;;
63046;SDS011;62025;39.238;9.126;2022-08-19T11:29:17;6.13;;;1.80;;
63046;SDS011;62025;39.238;9.126;2022-08-19T11:31:47;5.20;;;1.70;;
63046;SDS011;62025;39.238;9.126;2022-08-19T11:34:16;4.90;;;2.20;;
63046;SDS011;62025;39.238;9.126;2022-08-19T11:36:52;4.07;;;1.75;;
63046;SDS011;62025;39.238;9.126;2022-08-19T11:39:23;3.55;;;1.50;;
63046;SDS011;62025;39.238;9.126;2022-08-19T11:41:52;4.63;;;1.70;;
63046;SDS011;62025;39.238;9.126;2022-08-19T11:44:18;5.07;;;2.00;;
63046;SDS011;62025;39.238;9.126;2022-08-19T11:46:44;5.80;;;1.90;;
63046;SDS011;62025;39.238;9.126;2022-08-19T11:49:12;6.78;;;1.95;;
63046;SDS011;62025;39.238;9.126;2022-08-19T11:51:41;8.20;;;2.30;;
63046;SDS011;62025;39.238;9.126;2022-08-19T11:54:11;4.50;;;1.90;;
63046;SDS011;62025;39.238;9.126;2022-08-19T11:56:39;7.07;;;1.75;;
63046;SDS011;62025;39.238;9.126;2022-08-19T11:59:05;5.65;;;2.15;;
63046;SDS011;62025;39.238;9.126;2022-08-19T12:01:32;10.50;;;2.05;;
63046;SDS011;62025;39.238;9.126;2022-08-19T12:03:59;5.25;;;1.88;;
63046;SDS011;62025;39.238;9.126;2022-08-19T12:06:27;5.50;;;2.08;;
63046;SDS011;62025;39.238;9.126;2022-08-19T12:08:57;9.25;;;1.92;;
63046;SDS011;62025;39.238;9.126;2022-08-19T12:11:26;5.65;;;2.13;;
63046;SDS011;62025;39.238;9.126;2022-08-19T12:13:53;7.43;;;2.10;;
63046;SDS011;62025;39.238;9.126;2022-08-19T12:16:22;8.27;;;1.90;;
63046;SDS011;62025;39.238;9.126;2022-08-19T12:18:52;9.13;;;1.80;;
63046;SDS011;62025;39.238;9.126;2022-08-19T12:23:53;5.32;;;1.80;;
63046;SDS011;62025;39.238;9.126;2022-08-19T12:26:22;6.32;;;1.83;;
63046;SDS011;62025;39.238;9.126;2022-08-19T12:28:50;6.45;;;2.05;;
63046;SDS011;62025;39.238;9.126;2022-08-19T12:31:16;4.88;;;1.85;;
63046;SDS011;62025;39.238;9.126;2022-08-19T12:33:44;6.20;;;1.98;;
63046;SDS011;62025;39.238;9.126;2022-08-19T12:36:12;4.65;;;1.55;;
63046;SDS011;62025;39.238;9.126;2022-08-19T12:38:50;8.07;;;2.30;;
63046;SDS011;62025;39.238;9.126;2022-08-19T12:41:34;5.68;;;2.03;;
63046;SDS011;62025;39.238;9.126;2022-08-19T12:44:01;6.75;;;2.45;;
63046;SDS011;62025;39.238;9.126;2022-08-19T12:46:28;4.22;;;2.00;;
63046;SDS011;62025;39.238;9.126;2022-08-19T12:48:54;7.15;;;2.13;;
63046;SDS011;62025;39.238;9.126;2022-08-19T12:51:21;6.20;;;2.25;;
63046;SDS011;62025;39.238;9.126;2022-08-19T12:53:48;4.45;;;1.88;;
63046;SDS011;62025;39.238;9.126;2022-08-19T12:56:15;6.72;;;1.95;;
63046;SDS011;62025;39.238;9.126;2022-08-19T12:58:42;4.93;;;2.00;;
63046;SDS011;62025;39.238;9.126;2022-08-19T13:01:10;3.50;;;1.83;;
63046;SDS011;62025;39.238;9.126;2022-08-19T13:03:39;8.80;;;2.10;;
63046;SDS011;62025;39.238;9.126;2022-08-19T13:06:05;6.18;;;2.10;;
63046;SDS011;62025;39.238;9.126;2022-08-19T13:08:35;4.63;;;2.00;;
63046;SDS011;62025;39.238;9.126;2022-08-19T13:11:07;5.80;;;2.05;;
63046;SDS011;62025;39.238;9.126;2022-08-19T13:13:37;6.00;;;2.13;;
63046;SDS011;62025;39.238;9.126;2022-08-19T13:16:08;4.93;;;2.05;;
63046;SDS011;62025;39.238;9.126;2022-08-19T13:18:36;7.10;;;2.60;;
63046;SDS011;62025;39.238;9.126;2022-08-19T13:21:04;5.43;;;2.00;;
63046;SDS011;62025;39.238;9.126;2022-08-19T13:23:34;8.57;;;1.98;;
63046;SDS011;62025;39.238;9.126;2022-08-19T13:26:04;6.63;;;1.83;;
63046;SDS011;62025;39.238;9.126;2022-08-19T13:28:33;4.93;;;1.90;;
63046;SDS011;62025;39.238;9.126;2022-08-19T13:31:19;4.15;;;1.88;;
63046;SDS011;62025;39.238;9.126;2022-08-19T13:34:07;5.95;;;1.98;;
63046;SDS011;62025;39.238;9.126;2022-08-19T13:36:34;6.32;;;2.00;;
63046;SDS011;62025;39.238;9.126;2022-08-19T13:39:02;5.60;;;1.95;;
63046;SDS011;62025;39.238;9.126;2022-08-19T13:41:30;9.15;;;2.10;;
63046;SDS011;62025;39.238;9.126;2022-08-19T13:43:58;4.00;;;1.98;;
63046;SDS011;62025;39.238;9.126;2022-08-19T13:46:25;5.22;;;2.30;;
63046;SDS011;62025;39.238;9.126;2022-08-19T13:48:52;6.23;;;2.17;;
63046;SDS011;62025;39.238;9.126;2022-08-19T13:51:18;6.80;;;2.30;;
63046;SDS011;62025;39.238;9.126;2022-08-19T13:53:44;7.68;;;2.13;;
63046;SDS011;62025;39.238;9.126;2022-08-19T13:56:11;7.13;;;2.25;;
63046;SDS011;62025;39.238;9.126;2022-08-19T13:58:41;7.82;;;2.22;;
63046;SDS011;62025;39.238;9.126;2022-08-19T14:01:08;7.00;;;2.20;;
63046;SDS011;62025;39.238;9.126;2022-08-19T14:03:35;10.43;;;2.45;;
63046;SDS011;62025;39.238;9.126;2022-08-19T14:06:02;9.13;;;2.20;;
63046;SDS011;62025;39.238;9.126;2022-08-19T14:08:29;6.28;;;2.10;;
63046;SDS011;62025;39.238;9.126;2022-08-19T14:10:57;4.85;;;2.10;;
63046;SDS011;62025;39.238;9.126;2022-08-19T14:13:24;7.28;;;2.15;;
63046;SDS011;62025;39.238;9.126;2022-08-19T14:15:53;7.22;;;2.50;;
63046;SDS011;62025;39.238;9.126;2022-08-19T14:18:19;8.18;;;2.15;;
63046;SDS011;62025;39.238;9.126;2022-08-19T14:20:46;8.43;;;2.35;;
63046;SDS011;62025;39.238;9.126;2022-08-19T14:23:12;8.32;;;2.30;;
63046;SDS011;62025;39.238;9.126;2022-08-19T14:25:38;8.85;;;2.40;;
63046;SDS011;62025;39.238;9.126;2022-08-19T14:28:04;7.95;;;2.35;;
63046;SDS011;62025;39.238;9.126;2022-08-19T14:30:33;5.97;;;2.28;;
63046;SDS011;62025;39.238;9.126;2022-08-19T14:33:03;8.15;;;2.80;;
63046;SDS011;62025;39.238;9.126;2022-08-19T14:35:31;7.25;;;2.40;;
63046;SDS011;62025;39.238;9.126;2022-08-19T14:38:02;9.85;;;2.30;;
63046;SDS011;62025;39.238;9.126;2022-08-19T14:40:30;7.55;;;2.50;;
63046;SDS011;62025;39.238;9.126;2022-08-19T14:42:58;8.85;;;2.60;;
63046;SDS011;62025;39.238;9.126;2022-08-19T14:45:30;8.55;;;2.65;;
63046;SDS011;62025;39.238;9.126;2022-08-19T14:48:00;5.60;;;2.50;;
63046;SDS011;62025;39.238;9.126;2022-08-19T14:50:27;8.70;;;2.72;;
63046;SDS011;62025;39.238;9.126;2022-08-19T14:53:00;10.48;;;3.10;;
63046;SDS011;62025;39.238;9.126;2022-08-19T14:55:31;9.63;;;2.80;;
63046;SDS011;62025;39.238;9.126;2022-08-19T14:57:58;7.82;;;2.67;;
63046;SDS011;62025;39.238;9.126;2022-08-19T15:00:25;7.20;;;2.45;;
63046;SDS011;62025;39.238;9.126;2022-08-19T15:02:52;7.70;;;2.85;;
63046;SDS011;62025;39.238;9.126;2022-08-19T15:05:19;7.47;;;2.37;;
63046;SDS011;62025;39.238;9.126;2022-08-19T15:07:46;6.97;;;2.60;;
63046;SDS011;62025;39.238;9.126;2022-08-19T15:10:13;6.95;;;2.70;;
63046;SDS011;62025;39.238;9.126;2022-08-19T15:12:40;6.93;;;2.50;;
63046;SDS011;62025;39.238;9.126;2022-08-19T15:15:09;13.02;;;2.63;;
63046;SDS011;62025;39.238;9.126;2022-08-19T15:17:45;8.48;;;2.70;;
63046;SDS011;62025;39.238;9.126;2022-08-19T15:20:12;8.73;;;2.40;;
63046;SDS011;62025;39.238;9.126;2022-08-19T15:22:42;11.20;;;2.50;;
63046;SDS011;62025;39.238;9.126;2022-08-19T15:25:09;7.13;;;2.80;;
63046;SDS011;62025;39.238;9.126;2022-08-19T15:27:38;8.38;;;2.70;;
63046;SDS011;62025;39.238;9.126;2022-08-19T15:30:05;6.63;;;2.47;;
63046;SDS011;62025;39.238;9.126;2022-08-19T15:32:33;5.90;;;2.47;;
63046;SDS011;62025;39.238;9.126;2022-08-19T15:35:01;8.85;;;2.80;;